sensor_id;sensor_type;location;lat;lon;timestamp;P1;durP1;ratioP1;P2;durP2;ratioP2
5845;SDS011;2949;50.778;7.094;2023-08-24T00:01:45;13.40;;;3.93;;
5845;SDS011;2949;50.778;7.094;2023-08-24T00:04:11;4.97;;;3.50;;
5845;SDS011;2949;50.778;7.094;2023-08-24T00:06:36;7.47;;;3.87;;
5845;SDS011;2949;50.778;7.094;2023-08-24T00:09:03;4.50;;;3.40;;
5845;SDS011;2949;50.778;7.094;2023-08-24T00:11:30;6.50;;;3.87;;
5845;SDS011;2949;50.778;7.094;2023-08-24T00:13:56;3.83;;;3.00;;
5845;SDS011;2949;50.778;7.094;2023-08-24T00:16:22;10.53;;;3.43;;
5845;SDS011;2949;50.778;7.094;2023-08-24T00:18:48;7.50;;;3.63;;
5845;SDS011;2949;50.778;7.094;2023-08-24T00:21:14;5.57;;;2.73;;
5845;SDS011;2949;50.778;7.094;2023-08-24T00:23:47;3.90;;;3.10;;
5845;SDS011;2949;50.778;7.094;2023-08-24T00:26:13;8.37;;;3.70;;
5845;SDS011;2949;50.778;7.094;2023-08-24T00:28:41;17.53;;;3.97;;
5845;SDS011;2949;50.778;7.094;2023-08-24T00:31:07;7.80;;;4.10;;
5845;SDS011;2949;50.778;7.094;2023-08-24T00:33:33;11.70;;;3.80;;
5845;SDS011;2949;50.778;7.094;2023-08-24T00:36:00;11.63;;;4.03;;
5845;SDS011;2949;50.778;7.094;2023-08-24T00:38:26;7.50;;;3.87;;
5845;SDS011;2949;50.778;7.094;2023-08-24T00:40:52;6.00;;;3.17;;
5845;SDS011;2949;50.778;7.094;2023-08-24T00:43:18;5.73;;;4.20;;
5845;SDS011;2949;50.778;7.094;2023-08-24T00:45:49;4.70;;;3.13;;
5845;SDS011;2949;50.778;7.094;2023-08-24T00:48:15;15.80;;;3.43;;
5845;SDS011;2949;50.778;7.094;2023-08-24T00:50:41;8.13;;;4.37;;
5845;SDS011;2949;50.778;7.094;2023-08-24T00:53:07;7.47;;;3.63;;
5845;SDS011;2949;50.778;7.094;2023-08-24T00:55:33;10.13;;;4.23;;
5845;SDS011;2949;50.778;7.094;2023-08-24T00:57:59;7.23;;;3.90;;
5845;SDS011;2949;50.778;7.094;2023-08-24T01:00:25;5.93;;;3.13;;
5845;SDS011;2949;50.778;7.094;2023-08-24T01:02:51;6.50;;;4.33;;
5845;SDS011;2949;50.778;7.094;2023-08-24T01:05:17;5.60;;;3.27;;
5845;SDS011;2949;50.778;7.094;2023-08-24T01:07:43;9.03;;;3.70;;
5845;SDS011;2949;50.778;7.094;2023-08-24T01:10:09;12.40;;;3.70;;
5845;SDS011;2949;50.778;7.094;2023-08-24T01:12:44;8.20;;;3.43;;
5845;SDS011;2949;50.778;7.094;2023-08-24T01:15:19;6.17;;;3.83;;
5845;SDS011;2949;50.778;7.094;2023-08-24T01:17:49;5.70;;;3.70;;
5845;SDS011;2949;50.778;7.094;2023-08-24T01:20:15;6.97;;;4.10;;
5845;SDS011;2949;50.778;7.094;2023-08-24T01:23:17;5.13;;;3.73;;
5845;SDS011;2949;50.778;7.094;2023-08-24T01:25:40;6.00;;;3.30;;
5845;SDS011;2949;50.778;7.094;2023-08-24T01:28:08;6.10;;;3.40;;
5845;SDS011;2949;50.778;7.094;2023-08-24T01:30:35;12.33;;;4.13;;
5845;SDS011;2949;50.778;7.094;2023-08-24T01:33:04;5.50;;;3.90;;
5845;SDS011;2949;50.778;7.094;2023-08-24T01:35:30;5.90;;;3.00;;
5845;SDS011;2949;50.778;7.094;2023-08-24T01:37:57;10.73;;;4.07;;
5845;SDS011;2949;50.778;7.094;2023-08-24T01:40:31;7.17;;;4.40;;
5845;SDS011;2949;50.778;7.094;2023-08-24T01:43:04;8.90;;;4.67;;
5845;SDS011;2949;50.778;7.094;2023-08-24T01:45:32;7.67;;;3.63;;
5845;SDS011;2949;50.778;7.094;2023-08-24T01:48:02;9.27;;;4.50;;
5845;SDS011;2949;50.778;7.094;2023-08-24T01:50:29;8.43;;;4.03;;
5845;SDS011;2949;50.778;7.094;2023-08-24T01:52:55;8.43;;;3.83;;
5845;SDS011;2949;50.778;7.094;2023-08-24T01:55:21;13.80;;;3.83;;
5845;SDS011;2949;50.778;7.094;2023-08-24T01:57:48;8.77;;;3.70;;
5845;SDS011;2949;50.778;7.094;2023-08-24T02:00:14;6.83;;;3.73;;
5845;SDS011;2949;50.778;7.094;2023-08-24T02:02:41;12.80;;;4.13;;
5845;SDS011;2949;50.778;7.094;2023-08-24T02:05:07;7.73;;;3.67;;
5845;SDS011;2949;50.778;7.094;2023-08-24T02:07:33;3.50;;;3.20;;
5845;SDS011;2949;50.778;7.094;2023-08-24T02:09:59;6.77;;;4.33;;
5845;SDS011;2949;50.778;7.094;2023-08-24T02:12:25;7.30;;;3.90;;
5845;SDS011;2949;50.778;7.094;2023-08-24T02:14:51;5.03;;;3.67;;
5845;SDS011;2949;50.778;7.094;2023-08-24T02:17:16;4.00;;;3.60;;
5845;SDS011;2949;50.778;7.094;2023-08-24T02:19:43;4.63;;;3.50;;
5845;SDS011;2949;50.778;7.094;2023-08-24T02:22:09;9.30;;;3.67;;
5845;SDS011;2949;50.778;7.094;2023-08-24T02:24:35;7.03;;;3.73;;
5845;SDS011;2949;50.778;7.094;2023-08-24T02:27:01;13.83;;;4.97;;
5845;SDS011;2949;50.778;7.094;2023-08-24T02:29:26;5.87;;;3.53;;
5845;SDS011;2949;50.778;7.094;2023-08-24T02:31:52;3.90;;;3.03;;
5845;SDS011;2949;50.778;7.094;2023-08-24T02:34:18;9.17;;;4.03;;
5845;SDS011;2949;50.778;7.094;2023-08-24T02:36:44;7.20;;;3.73;;
5845;SDS011;2949;50.778;7.094;2023-08-24T02:39:10;6.00;;;4.50;;
5845;SDS011;2949;50.778;7.094;2023-08-24T02:41:36;4.67;;;3.53;;
5845;SDS011;2949;50.778;7.094;2023-08-24T02:44:02;8.03;;;3.57;;
5845;SDS011;2949;50.778;7.094;2023-08-24T02:46:28;6.70;;;4.20;;
5845;SDS011;2949;50.778;7.094;2023-08-24T02:48:55;4.73;;;4.23;;
5845;SDS011;2949;50.778;7.094;2023-08-24T02:51:21;6.50;;;3.87;;
5845;SDS011;2949;50.778;7.094;2023-08-24T02:53:47;7.33;;;4.47;;
5845;SDS011;2949;50.778;7.094;2023-08-24T02:56:13;5.07;;;3.47;;
5845;SDS011;2949;50.778;7.094;2023-08-24T02:58:39;4.70;;;3.53;;
5845;SDS011;2949;50.778;7.094;2023-08-24T03:01:05;6.27;;;3.50;;
5845;SDS011;2949;50.778;7.094;2023-08-24T03:03:35;3.47;;;2.80;;
5845;SDS011;2949;50.778;7.094;2023-08-24T03:06:02;4.87;;;3.60;;
5845;SDS011;2949;50.778;7.094;2023-08-24T03:08:29;6.83;;;4.53;;
5845;SDS011;2949;50.778;7.094;2023-08-24T03:10:55;4.00;;;3.33;;
5845;SDS011;2949;50.778;7.094;2023-08-24T03:13:21;3.90;;;3.00;;
5845;SDS011;2949;50.778;7.094;2023-08-24T03:15:47;11.13;;;3.63;;
5845;SDS011;2949;50.778;7.094;2023-08-24T03:18:13;13.00;;;3.13;;
5845;SDS011;2949;50.778;7.094;2023-08-24T03:20:39;7.13;;;3.47;;
5845;SDS011;2949;50.778;7.094;2023-08-24T03:23:06;5.90;;;3.33;;
5845;SDS011;2949;50.778;7.094;2023-08-24T03:25:35;5.40;;;3.43;;
5845;SDS011;2949;50.778;7.094;2023-08-24T03:28:01;4.17;;;3.33;;
5845;SDS011;2949;50.778;7.094;2023-08-24T03:30:27;3.30;;;3.00;;
5845;SDS011;2949;50.778;7.094;2023-08-24T03:32:53;9.30;;;3.67;;
5845;SDS011;2949;50.778;7.094;2023-08-24T03:35:19;6.83;;;3.70;;
5845;SDS011;2949;50.778;7.094;2023-08-24T03:37:45;6.07;;;3.43;;
5845;SDS011;2949;50.778;7.094;2023-08-24T03:40:12;7.20;;;3.60;;
5845;SDS011;2949;50.778;7.094;2023-08-24T03:42:38;7.67;;;3.80;;
5845;SDS011;2949;50.778;7.094;2023-08-24T03:45:04;8.70;;;3.43;;
5845;SDS011;2949;50.778;7.094;2023-08-24T03:47:30;7.93;;;3.90;;
5845;SDS011;2949;50.778;7.094;2023-08-24T03:49:56;4.50;;;3.40;;
5845;SDS011;2949;50.778;7.094;2023-08-24T03:52:22;3.90;;;3.20;;
5845;SDS011;2949;50.778;7.094;2023-08-24T03:54:48;4.17;;;3.77;;
5845;SDS011;2949;50.778;7.094;2023-08-24T03:57:14;6.90;;;4.10;;
5845;SDS011;2949;50.778;7.094;2023-08-24T03:59:40;12.63;;;5.80;;
5845;SDS011;2949;50.778;7.094;2023-08-24T04:02:06;5.53;;;3.80;;
5845;SDS011;2949;50.778;7.094;2023-08-24T04:04:32;9.60;;;3.90;;
5845;SDS011;2949;50.778;7.094;2023-08-24T04:06:59;6.00;;;3.90;;
5845;SDS011;2949;50.778;7.094;2023-08-24T04:09:25;4.67;;;4.03;;
5845;SDS011;2949;50.778;7.094;2023-08-24T04:11:51;5.33;;;3.30;;
5845;SDS011;2949;50.778;7.094;2023-08-24T04:14:17;4.77;;;3.13;;
5845;SDS011;2949;50.778;7.094;2023-08-24T04:16:42;5.77;;;4.10;;
5845;SDS011;2949;50.778;7.094;2023-08-24T04:19:08;6.67;;;3.63;;
5845;SDS011;2949;50.778;7.094;2023-08-24T04:21:34;7.03;;;3.33;;
5845;SDS011;2949;50.778;7.094;2023-08-24T04:24:00;6.17;;;3.60;;
5845;SDS011;2949;50.778;7.094;2023-08-24T04:26:26;7.73;;;3.47;;
5845;SDS011;2949;50.778;7.094;2023-08-24T04:28:52;4.03;;;3.27;;
5845;SDS011;2949;50.778;7.094;2023-08-24T04:31:18;5.70;;;3.97;;
5845;SDS011;2949;50.778;7.094;2023-08-24T04:33:45;4.00;;;3.70;;
5845;SDS011;2949;50.778;7.094;2023-08-24T04:36:10;6.13;;;3.73;;
5845;SDS011;2949;50.778;7.094;2023-08-24T04:38:36;5.60;;;3.43;;
5845;SDS011;2949;50.778;7.094;2023-08-24T04:41:02;4.40;;;3.60;;
5845;SDS011;2949;50.778;7.094;2023-08-24T04:43:32;9.00;;;4.30;;
5845;SDS011;2949;50.778;7.094;2023-08-24T04:45:59;6.00;;;4.03;;
5845;SDS011;2949;50.778;7.094;2023-08-24T04:48:25;5.70;;;3.60;;
5845;SDS011;2949;50.778;7.094;2023-08-24T04:50:52;4.70;;;3.70;;
5845;SDS011;2949;50.778;7.094;2023-08-24T04:53:19;4.60;;;3.70;;
5845;SDS011;2949;50.778;7.094;2023-08-24T04:55:45;6.37;;;3.97;;
5845;SDS011;2949;50.778;7.094;2023-08-24T04:58:12;10.60;;;4.13;;
5845;SDS011;2949;50.778;7.094;2023-08-24T05:00:38;4.07;;;3.77;;
5845;SDS011;2949;50.778;7.094;2023-08-24T05:03:05;5.10;;;4.20;;
5845;SDS011;2949;50.778;7.094;2023-08-24T05:05:31;5.37;;;4.23;;
5845;SDS011;2949;50.778;7.094;2023-08-24T05:07:58;8.50;;;4.60;;
5845;SDS011;2949;50.778;7.094;2023-08-24T05:10:24;13.77;;;4.00;;
5845;SDS011;2949;50.778;7.094;2023-08-24T05:12:50;6.73;;;4.40;;
5845;SDS011;2949;50.778;7.094;2023-08-24T05:15:16;9.37;;;4.80;;
5845;SDS011;2949;50.778;7.094;2023-08-24T05:17:42;13.23;;;5.60;;
5845;SDS011;2949;50.778;7.094;2023-08-24T05:20:08;12.73;;;5.50;;
5845;SDS011;2949;50.778;7.094;2023-08-24T05:22:35;14.03;;;5.00;;
5845;SDS011;2949;50.778;7.094;2023-08-24T05:25:01;8.57;;;5.10;;
5845;SDS011;2949;50.778;7.094;2023-08-24T05:27:27;6.77;;;4.70;;
5845;SDS011;2949;50.778;7.094;2023-08-24T05:29:53;7.60;;;5.10;;
5845;SDS011;2949;50.778;7.094;2023-08-24T05:32:19;8.80;;;5.43;;
5845;SDS011;2949;50.778;7.094;2023-08-24T05:34:45;13.87;;;5.43;;
5845;SDS011;2949;50.778;7.094;2023-08-24T05:37:11;8.90;;;5.30;;
5845;SDS011;2949;50.778;7.094;2023-08-24T05:39:37;6.63;;;5.33;;
5845;SDS011;2949;50.778;7.094;2023-08-24T05:42:03;8.40;;;5.47;;
5845;SDS011;2949;50.778;7.094;2023-08-24T05:44:29;6.40;;;4.83;;
5845;SDS011;2949;50.778;7.094;2023-08-24T05:46:55;9.40;;;4.73;;
5845;SDS011;2949;50.778;7.094;2023-08-24T05:49:21;8.70;;;5.30;;
5845;SDS011;2949;50.778;7.094;2023-08-24T05:51:49;6.33;;;4.90;;
5845;SDS011;2949;50.778;7.094;2023-08-24T05:54:15;9.37;;;5.40;;
5845;SDS011;2949;50.778;7.094;2023-08-24T05:56:45;7.30;;;5.23;;
5845;SDS011;2949;50.778;7.094;2023-08-24T05:59:11;8.50;;;4.77;;
5845;SDS011;2949;50.778;7.094;2023-08-24T06:01:37;7.43;;;4.80;;
5845;SDS011;2949;50.778;7.094;2023-08-24T06:04:07;12.00;;;4.87;;
5845;SDS011;2949;50.778;7.094;2023-08-24T06:06:33;7.43;;;4.63;;
5845;SDS011;2949;50.778;7.094;2023-08-24T06:08:59;7.90;;;4.93;;
5845;SDS011;2949;50.778;7.094;2023-08-24T06:11:24;9.37;;;4.67;;
5845;SDS011;2949;50.778;7.094;2023-08-24T06:13:50;16.93;;;5.63;;
5845;SDS011;2949;50.778;7.094;2023-08-24T06:16:18;6.23;;;4.90;;
5845;SDS011;2949;50.778;7.094;2023-08-24T06:18:44;7.13;;;4.60;;
5845;SDS011;2949;50.778;7.094;2023-08-24T06:21:10;9.13;;;4.40;;
5845;SDS011;2949;50.778;7.094;2023-08-24T06:23:36;10.67;;;4.43;;
5845;SDS011;2949;50.778;7.094;2023-08-24T06:26:02;13.90;;;5.17;;
5845;SDS011;2949;50.778;7.094;2023-08-24T06:28:29;9.10;;;5.00;;
5845;SDS011;2949;50.778;7.094;2023-08-24T06:30:55;12.90;;;4.93;;
5845;SDS011;2949;50.778;7.094;2023-08-24T06:33:26;9.97;;;4.20;;
5845;SDS011;2949;50.778;7.094;2023-08-24T06:35:55;8.20;;;4.00;;
5845;SDS011;2949;50.778;7.094;2023-08-24T06:38:20;5.70;;;3.23;;
5845;SDS011;2949;50.778;7.094;2023-08-24T06:40:46;8.00;;;4.20;;
5845;SDS011;2949;50.778;7.094;2023-08-24T06:43:12;7.33;;;2.90;;
5845;SDS011;2949;50.778;7.094;2023-08-24T06:45:39;6.57;;;3.53;;
5845;SDS011;2949;50.778;7.094;2023-08-24T06:48:05;13.03;;;3.90;;
5845;SDS011;2949;50.778;7.094;2023-08-24T06:50:32;11.00;;;3.43;;
5845;SDS011;2949;50.778;7.094;2023-08-24T06:52:58;12.60;;;3.30;;
5845;SDS011;2949;50.778;7.094;2023-08-24T06:55:24;7.90;;;3.50;;
5845;SDS011;2949;50.778;7.094;2023-08-24T06:57:50;6.57;;;3.10;;
5845;SDS011;2949;50.778;7.094;2023-08-24T07:00:17;6.20;;;2.87;;
5845;SDS011;2949;50.778;7.094;2023-08-24T07:02:44;12.70;;;3.57;;
5845;SDS011;2949;50.778;7.094;2023-08-24T07:05:10;7.47;;;3.30;;
5845;SDS011;2949;50.778;7.094;2023-08-24T07:07:37;8.10;;;3.03;;
5845;SDS011;2949;50.778;7.094;2023-08-24T07:10:03;5.40;;;3.63;;
5845;SDS011;2949;50.778;7.094;2023-08-24T07:12:29;5.70;;;2.93;;
5845;SDS011;2949;50.778;7.094;2023-08-24T07:14:55;3.93;;;2.80;;
5845;SDS011;2949;50.778;7.094;2023-08-24T07:17:21;7.87;;;3.10;;
5845;SDS011;2949;50.778;7.094;2023-08-24T07:19:47;4.80;;;2.80;;
5845;SDS011;2949;50.778;7.094;2023-08-24T07:22:13;4.27;;;3.37;;
5845;SDS011;2949;50.778;7.094;2023-08-24T07:24:39;6.77;;;2.73;;
5845;SDS011;2949;50.778;7.094;2023-08-24T07:27:06;8.43;;;2.77;;
5845;SDS011;2949;50.778;7.094;2023-08-24T07:29:33;5.90;;;2.80;;
5845;SDS011;2949;50.778;7.094;2023-08-24T07:31:59;6.53;;;2.80;;
5845;SDS011;2949;50.778;7.094;2023-08-24T07:34:25;5.47;;;2.87;;
5845;SDS011;2949;50.778;7.094;2023-08-24T07:36:51;5.13;;;2.33;;
5845;SDS011;2949;50.778;7.094;2023-08-24T07:39:18;12.40;;;3.20;;
5845;SDS011;2949;50.778;7.094;2023-08-24T07:41:44;2.53;;;2.30;;
5845;SDS011;2949;50.778;7.094;2023-08-24T07:44:10;5.47;;;2.67;;
5845;SDS011;2949;50.778;7.094;2023-08-24T07:46:38;3.07;;;2.27;;
5845;SDS011;2949;50.778;7.094;2023-08-24T07:49:04;5.60;;;2.50;;
5845;SDS011;2949;50.778;7.094;2023-08-24T07:51:32;5.43;;;2.70;;
5845;SDS011;2949;50.778;7.094;2023-08-24T07:53:59;4.83;;;2.30;;
5845;SDS011;2949;50.778;7.094;2023-08-24T07:56:25;3.10;;;2.30;;
5845;SDS011;2949;50.778;7.094;2023-08-24T07:58:51;3.20;;;2.23;;
5845;SDS011;2949;50.778;7.094;2023-08-24T08:01:17;4.17;;;2.40;;
5845;SDS011;2949;50.778;7.094;2023-08-24T08:03:43;3.33;;;2.23;;
5845;SDS011;2949;50.778;7.094;2023-08-24T08:06:09;2.50;;;2.30;;
5845;SDS011;2949;50.778;7.094;2023-08-24T08:08:35;4.93;;;2.10;;
5845;SDS011;2949;50.778;7.094;2023-08-24T08:11:02;4.00;;;2.13;;
5845;SDS011;2949;50.778;7.094;2023-08-24T08:13:28;5.70;;;2.23;;
5845;SDS011;2949;50.778;7.094;2023-08-24T08:16:00;2.33;;;1.53;;
5845;SDS011;2949;50.778;7.094;2023-08-24T08:18:26;10.83;;;2.53;;
5845;SDS011;2949;50.778;7.094;2023-08-24T08:20:52;2.60;;;1.93;;
5845;SDS011;2949;50.778;7.094;2023-08-24T08:23:18;5.00;;;2.00;;
5845;SDS011;2949;50.778;7.094;2023-08-24T08:25:44;4.13;;;2.60;;
5845;SDS011;2949;50.778;7.094;2023-08-24T08:28:10;2.60;;;2.00;;
5845;SDS011;2949;50.778;7.094;2023-08-24T08:30:36;4.23;;;2.27;;
5845;SDS011;2949;50.778;7.094;2023-08-24T08:33:02;4.03;;;2.00;;
5845;SDS011;2949;50.778;7.094;2023-08-24T08:35:28;2.87;;;2.47;;
5845;SDS011;2949;50.778;7.094;2023-08-24T08:37:53;7.00;;;2.30;;
5845;SDS011;2949;50.778;7.094;2023-08-24T08:40:20;3.83;;;2.07;;
5845;SDS011;2949;50.778;7.094;2023-08-24T08:42:46;2.25;;;1.73;;
5845;SDS011;2949;50.778;7.094;2023-08-24T08:45:12;5.07;;;2.00;;
5845;SDS011;2949;50.778;7.094;2023-08-24T08:47:38;2.60;;;2.10;;
5845;SDS011;2949;50.778;7.094;2023-08-24T08:50:06;4.00;;;1.80;;
5845;SDS011;2949;50.778;7.094;2023-08-24T08:52:32;2.58;;;2.20;;
5845;SDS011;2949;50.778;7.094;2023-08-24T08:54:58;3.28;;;1.70;;
5845;SDS011;2949;50.778;7.094;2023-08-24T08:57:24;3.00;;;2.08;;
5845;SDS011;2949;50.778;7.094;2023-08-24T08:59:53;4.43;;;2.25;;
5845;SDS011;2949;50.778;7.094;2023-08-24T09:02:20;6.20;;;2.40;;
5845;SDS011;2949;50.778;7.094;2023-08-24T09:04:47;2.60;;;1.80;;
5845;SDS011;2949;50.778;7.094;2023-08-24T09:07:13;2.63;;;1.83;;
5845;SDS011;2949;50.778;7.094;2023-08-24T09:09:40;1.73;;;1.63;;
5845;SDS011;2949;50.778;7.094;2023-08-24T09:12:06;4.40;;;1.93;;
5845;SDS011;2949;50.778;7.094;2023-08-24T09:14:32;4.90;;;1.80;;
5845;SDS011;2949;50.778;7.094;2023-08-24T09:16:58;2.67;;;1.53;;
5845;SDS011;2949;50.778;7.094;2023-08-24T09:19:31;2.60;;;1.77;;
5845;SDS011;2949;50.778;7.094;2023-08-24T09:21:57;2.00;;;1.70;;
5845;SDS011;2949;50.778;7.094;2023-08-24T09:24:30;1.87;;;1.77;;
5845;SDS011;2949;50.778;7.094;2023-08-24T09:26:59;2.53;;;2.33;;
5845;SDS011;2949;50.778;7.094;2023-08-24T09:29:25;4.67;;;2.17;;
5845;SDS011;2949;50.778;7.094;2023-08-24T09:31:51;2.53;;;1.70;;
5845;SDS011;2949;50.778;7.094;2023-08-24T09:34:22;3.13;;;2.00;;
5845;SDS011;2949;50.778;7.094;2023-08-24T09:36:53;2.00;;;1.90;;
5845;SDS011;2949;50.778;7.094;2023-08-24T09:39:18;2.90;;;2.30;;
5845;SDS011;2949;50.778;7.094;2023-08-24T09:41:54;3.70;;;1.90;;
5845;SDS011;2949;50.778;7.094;2023-08-24T09:44:20;2.17;;;1.98;;
5845;SDS011;2949;50.778;7.094;2023-08-24T09:46:46;3.28;;;2.10;;
5845;SDS011;2949;50.778;7.094;2023-08-24T09:49:12;3.42;;;1.73;;
5845;SDS011;2949;50.778;7.094;2023-08-24T09:51:39;11.27;;;2.15;;
5845;SDS011;2949;50.778;7.094;2023-08-24T09:54:06;5.27;;;1.90;;
5845;SDS011;2949;50.778;7.094;2023-08-24T09:56:40;2.17;;;1.77;;
5845;SDS011;2949;50.778;7.094;2023-08-24T09:59:15;2.17;;;1.90;;
5845;SDS011;2949;50.778;7.094;2023-08-24T10:01:47;7.30;;;1.80;;
5845;SDS011;2949;50.778;7.094;2023-08-24T10:04:17;3.70;;;2.20;;
5845;SDS011;2949;50.778;7.094;2023-08-24T10:06:44;6.80;;;3.10;;
5845;SDS011;2949;50.778;7.094;2023-08-24T10:09:14;4.67;;;2.07;;
5845;SDS011;2949;50.778;7.094;2023-08-24T10:11:47;6.00;;;2.07;;
5845;SDS011;2949;50.778;7.094;2023-08-24T10:16:43;4.27;;;2.70;;
5845;SDS011;2949;50.778;7.094;2023-08-24T10:19:09;1.73;;;1.50;;
5845;SDS011;2949;50.778;7.094;2023-08-24T10:21:37;2.20;;;1.50;;
5845;SDS011;2949;50.778;7.094;2023-08-24T10:24:03;3.10;;;1.90;;
5845;SDS011;2949;50.778;7.094;2023-08-24T10:26:29;1.87;;;1.77;;
5845;SDS011;2949;50.778;7.094;2023-08-24T10:28:55;2.77;;;1.77;;
5845;SDS011;2949;50.778;7.094;2023-08-24T10:31:21;3.10;;;2.23;;
5845;SDS011;2949;50.778;7.094;2023-08-24T10:33:47;11.10;;;1.97;;
5845;SDS011;2949;50.778;7.094;2023-08-24T10:36:14;5.17;;;1.93;;
5845;SDS011;2949;50.778;7.094;2023-08-24T10:38:40;4.50;;;2.40;;
5845;SDS011;2949;50.778;7.094;2023-08-24T10:41:10;3.20;;;1.70;;
5845;SDS011;2949;50.778;7.094;2023-08-24T10:43:39;2.50;;;2.13;;
5845;SDS011;2949;50.778;7.094;2023-08-24T10:46:13;2.10;;;1.90;;
5845;SDS011;2949;50.778;7.094;2023-08-24T10:53:45;3.23;;;1.90;;
5845;SDS011;2949;50.778;7.094;2023-08-24T10:56:14;4.87;;;2.50;;
5845;SDS011;2949;50.778;7.094;2023-08-24T10:58:40;2.20;;;2.00;;
5845;SDS011;2949;50.778;7.094;2023-08-24T11:01:06;3.03;;;1.90;;
5845;SDS011;2949;50.778;7.094;2023-08-24T11:03:33;7.63;;;2.27;;
5845;SDS011;2949;50.778;7.094;2023-08-24T11:05:59;2.40;;;2.20;;
5845;SDS011;2949;50.778;7.094;2023-08-24T11:11:23;3.67;;;1.90;;
5845;SDS011;2949;50.778;7.094;2023-08-24T11:16:41;4.67;;;2.10;;
5845;SDS011;2949;50.778;7.094;2023-08-24T11:19:07;2.93;;;2.23;;
5845;SDS011;2949;50.778;7.094;2023-08-24T11:21:34;2.13;;;1.93;;
5845;SDS011;2949;50.778;7.094;2023-08-24T11:24:01;3.53;;;2.20;;
5845;SDS011;2949;50.778;7.094;2023-08-24T11:26:29;8.73;;;2.30;;
5845;SDS011;2949;50.778;7.094;2023-08-24T11:28:55;5.97;;;2.47;;
5845;SDS011;2949;50.778;7.094;2023-08-24T11:31:22;4.03;;;2.30;;
5845;SDS011;2949;50.778;7.094;2023-08-24T11:33:53;2.70;;;2.07;;
5845;SDS011;2949;50.778;7.094;2023-08-24T11:36:20;5.30;;;2.20;;
5845;SDS011;2949;50.778;7.094;2023-08-24T11:38:46;2.27;;;2.07;;
5845;SDS011;2949;50.778;7.094;2023-08-24T11:41:13;4.83;;;2.37;;
5845;SDS011;2949;50.778;7.094;2023-08-24T11:43:39;9.20;;;2.73;;
5845;SDS011;2949;50.778;7.094;2023-08-24T11:46:05;8.57;;;3.03;;
5845;SDS011;2949;50.778;7.094;2023-08-24T11:48:31;8.80;;;2.63;;
5845;SDS011;2949;50.778;7.094;2023-08-24T11:50:57;5.90;;;2.13;;
5845;SDS011;2949;50.778;7.094;2023-08-24T11:53:24;3.77;;;2.30;;
5845;SDS011;2949;50.778;7.094;2023-08-24T11:55:53;4.90;;;2.70;;
5845;SDS011;2949;50.778;7.094;2023-08-24T11:58:19;4.00;;;2.20;;
5845;SDS011;2949;50.778;7.094;2023-08-24T12:00:45;3.87;;;2.00;;
5845;SDS011;2949;50.778;7.094;2023-08-24T12:03:12;4.17;;;2.00;;
5845;SDS011;2949;50.778;7.094;2023-08-24T12:05:38;4.10;;;2.27;;
5845;SDS011;2949;50.778;7.094;2023-08-24T12:08:04;5.40;;;2.37;;
5845;SDS011;2949;50.778;7.094;2023-08-24T12:10:31;5.07;;;2.90;;
5845;SDS011;2949;50.778;7.094;2023-08-24T12:13:01;8.33;;;3.00;;
5845;SDS011;2949;50.778;7.094;2023-08-24T12:15:27;5.93;;;2.60;;
5845;SDS011;2949;50.778;7.094;2023-08-24T12:17:53;2.97;;;2.23;;
5845;SDS011;2949;50.778;7.094;2023-08-24T12:20:20;4.30;;;2.17;;
5845;SDS011;2949;50.778;7.094;2023-08-24T12:22:50;14.37;;;3.00;;
5845;SDS011;2949;50.778;7.094;2023-08-24T12:25:16;4.60;;;2.10;;
5845;SDS011;2949;50.778;7.094;2023-08-24T12:27:42;6.57;;;2.10;;
5845;SDS011;2949;50.778;7.094;2023-08-24T12:30:10;4.33;;;2.20;;
5845;SDS011;2949;50.778;7.094;2023-08-24T12:32:46;5.17;;;2.10;;
5845;SDS011;2949;50.778;7.094;2023-08-24T12:35:13;4.63;;;2.30;;
5845;SDS011;2949;50.778;7.094;2023-08-24T12:37:40;4.43;;;2.70;;
5845;SDS011;2949;50.778;7.094;2023-08-24T12:40:06;11.60;;;3.27;;
5845;SDS011;2949;50.778;7.094;2023-08-24T12:42:33;8.43;;;2.50;;
5845;SDS011;2949;50.778;7.094;2023-08-24T12:44:59;4.10;;;2.67;;
5845;SDS011;2949;50.778;7.094;2023-08-24T12:47:25;4.80;;;2.40;;
5845;SDS011;2949;50.778;7.094;2023-08-24T12:49:51;4.73;;;3.00;;
5845;SDS011;2949;50.778;7.094;2023-08-24T12:52:19;4.10;;;2.60;;
5845;SDS011;2949;50.778;7.094;2023-08-24T12:54:45;5.33;;;2.33;;
5845;SDS011;2949;50.778;7.094;2023-08-24T12:57:11;3.90;;;2.70;;
5845;SDS011;2949;50.778;7.094;2023-08-24T12:59:37;4.40;;;2.57;;
5845;SDS011;2949;50.778;7.094;2023-08-24T13:02:03;5.80;;;2.50;;
5845;SDS011;2949;50.778;7.094;2023-08-24T13:04:29;6.33;;;2.63;;
5845;SDS011;2949;50.778;7.094;2023-08-24T13:06:57;5.67;;;2.30;;
5845;SDS011;2949;50.778;7.094;2023-08-24T13:09:23;4.97;;;2.30;;
5845;SDS011;2949;50.778;7.094;2023-08-24T13:11:49;6.80;;;2.90;;
5845;SDS011;2949;50.778;7.094;2023-08-24T13:14:15;9.17;;;2.67;;
5845;SDS011;2949;50.778;7.094;2023-08-24T13:16:41;5.37;;;2.57;;
5845;SDS011;2949;50.778;7.094;2023-08-24T13:19:07;8.40;;;3.43;;
5845;SDS011;2949;50.778;7.094;2023-08-24T13:21:33;5.43;;;2.63;;
5845;SDS011;2949;50.778;7.094;2023-08-24T13:23:59;7.37;;;2.40;;
5845;SDS011;2949;50.778;7.094;2023-08-24T13:26:25;8.40;;;2.50;;
5845;SDS011;2949;50.778;7.094;2023-08-24T13:28:51;3.97;;;2.37;;
5845;SDS011;2949;50.778;7.094;2023-08-24T13:31:17;4.90;;;2.03;;
5845;SDS011;2949;50.778;7.094;2023-08-24T13:33:46;4.17;;;3.10;;
5845;SDS011;2949;50.778;7.094;2023-08-24T13:36:12;4.67;;;2.93;;
5845;SDS011;2949;50.778;7.094;2023-08-24T13:38:38;11.13;;;2.70;;
5845;SDS011;2949;50.778;7.094;2023-08-24T13:41:04;6.87;;;2.47;;
5845;SDS011;2949;50.778;7.094;2023-08-24T13:43:31;5.27;;;2.80;;
5845;SDS011;2949;50.778;7.094;2023-08-24T13:45:57;5.63;;;2.67;;
5845;SDS011;2949;50.778;7.094;2023-08-24T13:48:23;7.73;;;3.20;;
5845;SDS011;2949;50.778;7.094;2023-08-24T13:50:52;3.33;;;2.47;;
5845;SDS011;2949;50.778;7.094;2023-08-24T13:53:18;6.53;;;3.27;;
5845;SDS011;2949;50.778;7.094;2023-08-24T13:55:44;6.17;;;3.10;;
5845;SDS011;2949;50.778;7.094;2023-08-24T13:58:10;7.97;;;2.40;;
5845;SDS011;2949;50.778;7.094;2023-08-24T14:00:36;3.60;;;2.50;;
5845;SDS011;2949;50.778;7.094;2023-08-24T14:03:02;8.53;;;2.10;;
5845;SDS011;2949;50.778;7.094;2023-08-24T14:05:29;5.47;;;2.30;;
5845;SDS011;2949;50.778;7.094;2023-08-24T14:07:55;10.90;;;3.03;;
5845;SDS011;2949;50.778;7.094;2023-08-24T14:10:21;6.53;;;2.67;;
5845;SDS011;2949;50.778;7.094;2023-08-24T14:12:47;4.93;;;2.70;;
5845;SDS011;2949;50.778;7.094;2023-08-24T14:15:13;4.13;;;2.50;;
5845;SDS011;2949;50.778;7.094;2023-08-24T14:17:39;8.53;;;3.40;;
5845;SDS011;2949;50.778;7.094;2023-08-24T14:20:05;7.23;;;3.50;;
5845;SDS011;2949;50.778;7.094;2023-08-24T14:22:31;7.03;;;3.00;;
5845;SDS011;2949;50.778;7.094;2023-08-24T14:24:57;5.00;;;2.33;;
5845;SDS011;2949;50.778;7.094;2023-08-24T14:27:23;4.67;;;2.47;;
5845;SDS011;2949;50.778;7.094;2023-08-24T14:29:49;5.10;;;2.00;;
5845;SDS011;2949;50.778;7.094;2023-08-24T14:32:15;4.47;;;2.33;;
5845;SDS011;2949;50.778;7.094;2023-08-24T14:34:41;3.43;;;2.70;;
5845;SDS011;2949;50.778;7.094;2023-08-24T14:37:08;4.50;;;2.60;;
5845;SDS011;2949;50.778;7.094;2023-08-24T14:39:34;12.20;;;3.70;;
5845;SDS011;2949;50.778;7.094;2023-08-24T14:42:00;2.40;;;1.73;;
5845;SDS011;2949;50.778;7.094;2023-08-24T14:44:28;3.57;;;2.40;;
5845;SDS011;2949;50.778;7.094;2023-08-24T14:46:53;7.53;;;2.53;;
5845;SDS011;2949;50.778;7.094;2023-08-24T14:49:19;5.10;;;2.03;;
5845;SDS011;2949;50.778;7.094;2023-08-24T14:51:45;8.57;;;2.70;;
5845;SDS011;2949;50.778;7.094;2023-08-24T14:54:12;4.23;;;2.47;;
5845;SDS011;2949;50.778;7.094;2023-08-24T14:56:41;2.93;;;2.20;;
5845;SDS011;2949;50.778;7.094;2023-08-24T14:59:07;3.93;;;2.27;;
5845;SDS011;2949;50.778;7.094;2023-08-24T15:01:33;5.63;;;2.63;;
5845;SDS011;2949;50.778;7.094;2023-08-24T15:03:59;12.10;;;2.63;;
5845;SDS011;2949;50.778;7.094;2023-08-24T15:06:25;8.33;;;3.07;;
5845;SDS011;2949;50.778;7.094;2023-08-24T15:08:51;8.60;;;2.60;;
5845;SDS011;2949;50.778;7.094;2023-08-24T15:11:17;8.07;;;2.50;;
5845;SDS011;2949;50.778;7.094;2023-08-24T15:13:44;4.03;;;2.30;;
5845;SDS011;2949;50.778;7.094;2023-08-24T15:16:10;5.77;;;2.60;;
5845;SDS011;2949;50.778;7.094;2023-08-24T15:18:36;4.57;;;2.27;;
5845;SDS011;2949;50.778;7.094;2023-08-24T15:21:02;8.53;;;2.30;;
5845;SDS011;2949;50.778;7.094;2023-08-24T15:23:28;2.10;;;1.73;;
5845;SDS011;2949;50.778;7.094;2023-08-24T15:25:55;6.57;;;2.30;;